Poplar, Wisconsin
Current Conditions -  °F | °C
As of 7:13 PM on Wednesday 22 Oct 2014 (Local Time) from KDYT Reporting Station
Light Rain Light Rain  
Wind Chill: 52°   Ceiling: Unl
Heat Index: 52°   Visibility: 10mi
Dew Point: 46°   Wind: 0mph
Humidity: 82%   Direction: NA
Pressure: 30.06"   Gusts: NA
Location:  46.58°N, 91.8°W
Report Text: KDYT 230013Z AUTO 00000KT 10SM -RA SCT100 11/08 A3006 RMK AO2
Loading
Personal Weather Stations






























Interactive Weather Map
Tropical Storm Tracking
New forecast layout! Learn more

10-Day Weather Forecast

Advertisements
Track Severe Weather on mobile